Time;durP1;ratioP1;P1;durP2;ratioP2;P2;SDS_P1;SDS_P2;PMS_P1;PMS_P2;Temp;Humidity;BMP_temperature;BMP_pressure;BME280_temperature;BME280_humidity;BME280_pressure;Samples;Min_cycle;Max_cycle;Signal;HPM_P1;HPM_P2
2022/05/17 00:02:05;;;;;;;4.50;2.50;;;;;;;17.59;40.27;100972.78;5065346;28;20052;-56
2022/05/17 00:04:33;;;;;;;5.18;2.35;;;;;;;17.59;40.71;100976.28;5065782;28;20546;-52
2022/05/17 00:07:02;;;;;;;3.75;2.05;;;;;;;17.56;40.47;100978.34;5070011;28;20051;-53
2022/05/17 00:09:29;;;;;;;6.78;2.10;;;;;;;17.55;40.37;100969.53;5049283;28;20052;-57
2022/05/17 00:11:57;;;;;;;10.32;2.55;;;;;;;17.54;40.44;100964.34;5067324;28;20055;-55
2022/05/17 00:14:25;;;;;;;4.90;2.83;;;;;;;17.52;40.56;100969.81;5061957;28;20416;-56
2022/05/17 00:16:52;;;;;;;7.65;2.13;;;;;;;17.51;40.60;100965.44;5063291;28;20048;-54
2022/05/17 00:19:20;;;;;;;8.07;2.58;;;;;;;17.51;40.63;100957.44;5065484;28;20528;-52
2022/05/17 00:21:48;;;;;;;4.15;2.63;;;;;;;17.50;41.05;100957.59;5069409;28;20053;-54
2022/05/17 00:24:18;;;;;;;8.82;2.55;;;;;;;17.48;40.91;100957.72;5071060;28;20439;-54
2022/05/17 00:26:45;;;;;;;6.07;2.05;;;;;;;17.48;40.61;100949.75;5055294;23;20053;-50
2022/05/17 00:29:13;;;;;;;7.82;2.30;;;;;;;17.48;40.89;100955.06;5042728;28;20049;-52
2022/05/17 00:31:40;;;;;;;4.05;1.90;;;;;;;17.47;40.88;100953.34;5050031;28;20055;-53
2022/05/17 00:34:08;;;;;;;6.30;2.30;;;;;;;17.47;41.20;100958.66;5045501;28;20424;-55
2022/05/17 00:36:36;;;;;;;6.22;2.95;;;;;;;17.45;41.32;100955.31;5041708;28;20053;-54
2022/05/17 00:39:03;;;;;;;5.45;2.33;;;;;;;17.44;41.23;100954.47;5043738;28;20045;-50
2022/05/17 00:41:30;;;;;;;6.05;2.40;;;;;;;17.43;41.73;100952.78;5043777;28;20515;-53
2022/05/17 00:46:54;;;;;;;10.07;2.05;;;;;;;17.39;42.45;100956.66;5039421;28;20087;-53
2022/05/17 00:49:26;;;;;;;4.63;2.05;;;;;;;17.37;43.82;100947.09;5045277;28;21351;-54
2022/05/17 00:51:57;;;;;;;9.32;2.50;;;;;;;17.34;44.21;100944.72;5039925;28;20055;-51
2022/05/17 00:54:24;;;;;;;6.43;2.35;;;;;;;17.30;44.81;100952.09;5039324;28;20037;-52
2022/05/17 00:57:02;;;;;;;4.65;2.20;;;;;;;17.23;45.12;100948.22;5044319;28;20064;-52
2022/05/17 00:59:30;;;;;;;6.75;2.28;;;;;;;17.16;46.24;100942.59;5041911;28;20041;-53
2022/05/17 01:01:58;;;;;;;8.02;2.30;;;;;;;17.13;46.32;100945.47;5040006;28;20055;-55
2022/05/17 01:04:26;;;;;;;7.53;2.40;;;;;;;17.09;46.56;100949.34;5039777;28;20056;-52
2022/05/17 01:06:58;;;;;;;6.07;2.67;;;;;;;17.08;46.45;100950.34;5038207;28;20072;-54
2022/05/17 01:09:25;;;;;;;5.30;2.38;;;;;;;17.05;46.82;100947.06;5024318;28;20087;-53
2022/05/17 01:11:52;;;;;;;6.28;2.25;;;;;;;17.00;46.91;100942.13;5030441;28;20065;-52
2022/05/17 01:17:06;;;;;;;4.38;1.95;;;;;;;16.95;47.28;100945.16;5042607;28;20060;-54
2022/05/17 01:19:34;;;;;;;7.00;2.47;;;;;;;16.92;47.23;100942.72;5038108;28;20037;-55
2022/05/17 01:22:01;;;;;;;6.80;2.65;;;;;;;16.89;48.08;100942.16;5037149;28;20052;-52
2022/05/17 01:24:28;;;;;;;6.07;2.17;;;;;;;16.87;48.04;100941.41;5043379;28;20057;-53
2022/05/17 01:27:05;;;;;;;8.13;2.58;;;;;;;16.86;48.26;100940.59;5038927;28;20080;-55
2022/05/17 01:29:39;;;;;;;10.57;2.30;;;;;;;16.84;47.83;100939.88;5037324;28;20045;-52
2022/05/17 01:32:09;;;;;;;6.97;2.30;;;;;;;16.84;47.88;100945.19;5023382;28;20072;-52
2022/05/17 01:34:37;;;;;;;8.90;2.10;;;;;;;16.82;48.90;100946.25;5040933;28;20049;-58
2022/05/17 01:37:05;;;;;;;8.23;2.05;;;;;;;16.81;49.10;100947.25;5039983;28;20049;-51
2022/05/17 01:39:33;;;;;;;7.47;2.53;;;;;;;16.79;49.14;100946.50;5038356;28;20051;-52
2022/05/17 01:42:00;;;;;;;5.80;2.30;;;;;;;16.79;49.80;100951.81;5038141;28;20048;-52
2022/05/17 01:44:28;;;;;;;9.07;2.65;;;;;;;16.72;50.42;100948.81;5034536;28;20059;-53
2022/05/17 01:46:55;;;;;;;6.35;2.42;;;;;;;16.64;51.27;100962.69;5042210;28;20060;-54
2022/05/17 01:49:23;;;;;;;7.75;3.15;;;;;;;16.62;53.95;100967.28;5034018;28;20559;-54
2022/05/17 01:51:50;;;;;;;4.55;2.30;;;;;;;16.58;53.32;100967.66;5035794;28;20044;-51
2022/05/17 01:54:17;;;;;;;7.57;2.60;;;;;;;16.52;53.96;100962.78;5040871;28;20045;-52
2022/05/17 01:56:45;;;;;;;6.65;2.10;;;;;;;16.49;55.79;100963.06;5045092;28;20053;-51
2022/05/17 01:59:12;;;;;;;5.40;2.63;;;;;;;16.44;56.45;100974.03;5037577;28;20063;-53
2022/05/17 02:01:40;;;;;;;8.25;2.15;;;;;;;16.40;57.16;100978.75;5038787;28;20048;-50
2022/05/17 02:04:07;;;;;;;5.68;2.42;;;;;;;16.34;58.13;100981.00;5037487;28;20045;-53
2022/05/17 02:06:35;;;;;;;7.15;2.60;;;;;;;16.30;59.75;100985.75;5041787;28;20044;-53
2022/05/17 02:09:02;;;;;;;7.75;2.63;;;;;;;16.26;60.51;100986.09;5036635;28;22357;-55
2022/05/17 02:11:30;;;;;;;5.28;2.00;;;;;;;16.22;60.86;100989.94;5020365;28;20052;-54
2022/05/17 02:13:57;;;;;;;5.22;2.35;;;;;;;16.17;60.86;100988.50;5039987;28;20246;-58
2022/05/17 02:16:25;;;;;;;5.50;2.22;;;;;;;16.12;61.68;100995.97;5034820;28;20417;-53
2022/05/17 02:18:52;;;;;;;10.95;3.10;;;;;;;16.10;62.57;100997.03;5040073;28;20067;-54
2022/05/17 02:21:19;;;;;;;6.07;2.55;;;;;;;16.06;62.53;101000.88;5036964;28;20045;-53
2022/05/17 02:23:47;;;;;;;12.93;2.92;;;;;;;15.98;64.47;101000.59;5037304;28;20049;-54
2022/05/17 02:26:14;;;;;;;7.15;2.67;;;;;;;15.92;63.92;100993.97;5037666;28;20059;-54
2022/05/17 02:28:43;;;;;;;9.05;2.90;;;;;;;15.90;65.06;100995.91;5036340;28;20049;-55
2022/05/17 02:31:12;;;;;;;13.23;4.47;;;;;;;15.82;65.08;100999.13;5040877;28;20040;-52
2022/05/17 02:33:40;;;;;;;5.35;2.72;;;;;;;15.78;65.23;100999.47;5037510;28;20057;-53
2022/05/17 02:36:07;;;;;;;5.38;3.15;;;;;;;15.74;65.68;100996.19;5037299;28;20055;-56
2022/05/17 02:38:34;;;;;;;7.68;2.97;;;;;;;15.71;66.78;101007.03;5043524;28;20049;-53
2022/05/17 02:41:02;;;;;;;9.05;3.03;;;;;;;15.64;67.41;100996.03;5045739;28;20057;-52
2022/05/17 02:43:30;;;;;;;8.95;3.50;;;;;;;15.57;67.80;101005.38;5042062;28;20055;-52
2022/05/17 02:46:03;;;;;;;10.82;2.70;;;;;;;15.54;68.47;101005.59;5037537;28;20482;-54
2022/05/17 02:48:31;;;;;;;5.32;3.33;;;;;;;15.50;69.96;101009.44;5038588;28;20075;-52
2022/05/17 02:51:06;;;;;;;10.95;3.53;;;;;;;15.44;71.45;101010.75;5040267;28;20053;-51
2022/05/17 02:53:34;;;;;;;6.53;2.78;;;;;;;15.40;71.37;101009.28;5038818;28;20047;-52
2022/05/17 02:56:01;;;;;;;9.02;3.55;;;;;;;15.35;72.46;101010.53;5036955;28;20555;-52
2022/05/17 02:58:29;;;;;;;8.23;3.22;;;;;;;15.29;73.84;101018.97;5038774;28;20045;-52
2022/05/17 03:00:56;;;;;;;7.22;3.30;;;;;;;15.21;73.42;101016.84;5037743;28;20068;-54
2022/05/17 03:03:24;;;;;;;4.25;2.78;;;;;;;15.20;73.79;101028.44;5045017;28;20060;-55
2022/05/17 03:05:55;;;;;;;8.18;2.92;;;;;;;15.13;75.26;101033.34;5039220;28;20795;-51
2022/05/17 03:08:22;;;;;;;8.98;4.20;;;;;;;15.11;75.91;101035.22;5042849;28;20416;-52
2022/05/17 03:10:49;;;;;;;6.63;2.70;;;;;;;15.11;75.59;101040.53;5021022;28;20349;-55
2022/05/17 03:13:17;;;;;;;7.18;3.30;;;;;;;15.12;76.70;101039.56;5040813;28;20061;-53
2022/05/17 03:15:44;;;;;;;8.82;2.90;;;;;;;15.12;77.20;101047.53;5034256;28;20060;-54
2022/05/17 03:18:11;;;;;;;6.97;3.20;;;;;;;15.11;77.49;101053.78;5026032;28;20517;-54
2022/05/17 03:20:39;;;;;;;5.35;2.78;;;;;;;15.10;78.00;101054.75;5037423;28;20050;-55
2022/05/17 03:23:06;;;;;;;10.18;3.42;;;;;;;15.09;79.41;101061.03;5039425;28;20041;-54
2022/05/17 03:25:33;;;;;;;9.60;3.22;;;;;;;15.11;79.84;101066.22;5040232;28;20041;-56
2022/05/17 03:28:01;;;;;;;6.53;3.47;;;;;;;15.12;80.29;101063.44;5046027;28;20049;-50
2022/05/17 03:30:28;;;;;;;8.13;3.30;;;;;;;15.13;81.06;101070.47;5037743;28;20059;-50
2022/05/17 03:32:56;;;;;;;9.50;3.08;;;;;;;15.12;81.49;101073.19;5043194;28;20067;-55
2022/05/17 03:35:23;;;;;;;7.13;3.33;;;;;;;15.10;82.62;101078.63;5039139;28;20063;-56
2022/05/17 03:37:51;;;;;;;9.93;4.05;;;;;;;15.09;83.68;101092.84;5041891;28;20052;-53
2022/05/17 03:40:18;;;;;;;12.45;3.65;;;;;;;15.07;83.66;101092.09;5028509;28;20703;-53
2022/05/17 03:42:45;;;;;;;9.82;4.20;;;;;;;15.03;83.75;101095.91;5036383;28;20054;-52
2022/05/17 03:45:13;;;;;;;9.55;4.47;;;;;;;14.98;85.12;101100.69;5037865;28;20037;-54
2022/05/17 03:47:41;;;;;;;8.73;4.43;;;;;;;14.96;86.26;101107.91;5041821;28;20049;-55
2022/05/17 03:50:10;;;;;;;10.27;4.07;;;;;;;14.94;87.30;101105.34;5041256;28;20628;-53
2022/05/17 03:52:37;;;;;;;10.32;4.43;;;;;;;14.95;88.53;101111.53;5045324;28;20060;-53
2022/05/17 03:55:06;;;;;;;11.52;4.03;;;;;;;14.91;88.82;101116.19;5024475;28;20052;-55
2022/05/17 03:57:34;;;;;;;9.63;4.35;;;;;;;14.90;89.21;101110.97;5045199;28;20485;-55
2022/05/17 04:00:06;;;;;;;8.30;4.10;;;;;;;14.88;89.81;101118.19;5044981;28;20045;-55
2022/05/17 04:02:36;;;;;;;8.98;4.30;;;;;;;14.85;90.41;101124.53;5047004;28;20053;-49
2022/05/17 04:05:04;;;;;;;11.98;4.10;;;;;;;14.78;90.48;101123.28;5042784;28;20057;-51
2022/05/17 04:07:32;;;;;;;8.63;4.10;;;;;;;14.73;90.86;101129.88;5038560;28;20056;-51
2022/05/17 04:09:59;;;;;;;9.80;4.35;;;;;;;14.70;91.59;101125.59;5040650;28;20045;-53
2022/05/17 04:12:26;;;;;;;6.60;4.13;;;;;;;14.67;91.65;101137.25;5044172;28;20044;-54
2022/05/17 04:14:54;;;;;;;7.53;4.22;;;;;;;14.61;93.41;101136.84;5036432;28;20056;-50
2022/05/17 04:17:21;;;;;;;9.27;4.00;;;;;;;14.39;92.26;101137.38;5046103;28;20049;-51
2022/05/17 04:19:48;;;;;;;8.07;3.92;;;;;;;14.28;91.59;101138.13;5039257;28;20122;-52
2022/05/17 04:22:16;;;;;;;7.30;3.88;;;;;;;14.17;90.07;101138.81;5040739;28;20042;-48
2022/05/17 04:24:43;;;;;;;10.32;3.88;;;;;;;14.13;90.10;101136.47;5042819;28;20049;-55
2022/05/17 04:27:13;;;;;;;9.35;3.40;;;;;;;14.10;89.39;101140.19;5042627;28;20045;-53
2022/05/17 04:29:41;;;;;;;9.15;3.50;;;;;;;14.11;89.52;101143.66;5041550;28;20041;-53
2022/05/17 04:32:09;;;;;;;8.40;3.67;;;;;;;14.11;89.41;101147.16;5041579;28;20061;-55
2022/05/17 04:34:36;;;;;;;10.50;4.03;;;;;;;14.11;90.14;101143.66;5045427;28;20041;-51
2022/05/17 04:37:04;;;;;;;8.35;3.50;;;;;;;14.08;90.60;101139.41;5040500;28;20055;-54
2022/05/17 04:39:31;;;;;;;8.00;4.18;;;;;;;14.09;92.47;101140.25;5043722;28;20063;-54
2022/05/17 04:41:59;;;;;;;7.80;3.55;;;;;;;14.06;92.42;101138.69;5043985;28;20061;-55
2022/05/17 04:44:27;;;;;;;6.60;3.13;;;;;;;14.06;92.74;101133.38;5041063;28;20067;-54
2022/05/17 04:46:54;;;;;;;7.30;3.85;;;;;;;14.07;92.37;101134.22;5043245;28;20049;-52
2022/05/17 04:49:22;;;;;;;5.32;3.42;;;;;;;14.06;92.46;101128.09;5045712;28;20083;-54
2022/05/17 04:51:51;;;;;;;7.68;3.80;;;;;;;14.08;92.88;101130.63;5042800;28;20540;-51
2022/05/17 04:54:18;;;;;;;10.93;4.10;;;;;;;14.07;92.65;101129.78;5043795;28;20045;-53
2022/05/17 04:56:46;;;;;;;5.70;3.08;;;;;;;14.06;93.52;101125.44;5038750;28;20061;-50
2022/05/17 04:59:13;;;;;;;6.57;4.00;;;;;;;14.07;93.80;101135.06;5040808;28;20045;-50
2022/05/17 05:01:40;;;;;;;8.57;3.55;;;;;;;14.09;93.70;101127.00;5040217;28;20092;-50
2022/05/17 05:04:08;;;;;;;10.75;4.28;;;;;;;14.11;94.02;101130.44;5039886;28;20035;-52
2022/05/17 05:06:35;;;;;;;9.25;4.03;;;;;;;14.08;93.94;101123.53;5030950;28;21262;-51
2022/05/17 05:09:03;;;;;;;6.88;3.65;;;;;;;14.07;94.13;101121.00;5022613;28;20083;-49
2022/05/17 05:11:30;;;;;;;6.80;3.72;;;;;;;14.09;94.48;101134.97;5044531;28;20436;-52
2022/05/17 05:13:57;;;;;;;11.88;3.85;;;;;;;14.11;94.81;101130.44;5042524;28;20155;-50
2022/05/17 05:16:25;;;;;;;7.93;4.10;;;;;;;14.10;94.14;101126.94;5045970;28;20197;-53
2022/05/17 05:18:52;;;;;;;9.57;4.13;;;;;;;14.12;94.70;101130.31;5040913;28;20672;-51
2022/05/17 05:21:19;;;;;;;9.55;4.07;;;;;;;14.14;94.49;101123.13;5043560;28;20535;-54
2022/05/17 05:23:47;;;;;;;9.38;3.72;;;;;;;14.18;94.76;101124.63;5022376;28;20143;-55
2022/05/17 05:26:15;;;;;;;5.55;3.70;;;;;;;14.21;94.96;101130.66;5027928;28;20053;-53
2022/05/17 05:28:43;;;;;;;9.20;4.20;;;;;;;14.24;95.12;101127.81;5026778;28;20053;-50
2022/05/17 05:31:17;;;;;;;5.88;3.90;;;;;;;14.19;95.64;101125.50;5040835;28;20041;-51
2022/05/17 05:33:44;;;;;;;17.65;4.82;;;;;;;14.17;95.46;101128.22;5038088;28;20115;-51
2022/05/17 05:36:12;;;;;;;8.98;3.95;;;;;;;14.20;95.73;101135.13;5036697;28;20063;-52
2022/05/17 05:38:39;;;;;;;6.97;3.80;;;;;;;14.16;96.14;101126.53;5039080;28;20063;-50
2022/05/17 05:41:11;;;;;;;10.23;4.75;;;;;;;14.15;97.31;101121.34;5040346;28;20056;-50
2022/05/17 05:43:38;;;;;;;9.77;4.30;;;;;;;14.12;96.90;101124.19;5034559;28;20624;-49
2022/05/17 05:46:05;;;;;;;8.45;5.00;;;;;;;14.13;96.60;101116.13;5037448;28;20041;-50
2022/05/17 05:48:33;;;;;;;10.32;4.55;;;;;;;14.16;96.40;101117.72;5041630;28;20045;-51
2022/05/17 05:51:00;;;;;;;15.13;5.13;;;;;;;14.17;97.00;101124.72;5039793;28;20057;-49
2022/05/17 05:53:27;;;;;;;10.50;5.05;;;;;;;14.17;97.74;101127.38;5037738;28;20545;-51
2022/05/17 05:56:01;;;;;;;8.32;4.80;;;;;;;14.10;98.36;101144.63;5037559;28;20336;-49
2022/05/17 05:58:30;;;;;;;7.07;4.22;;;;;;;14.04;98.38;101150.31;5020582;28;20045;-50
2022/05/17 06:00:57;;;;;;;9.05;4.80;;;;;;;14.04;98.56;101153.78;5038004;28;20535;-50
2022/05/17 06:03:26;;;;;;;10.43;4.53;;;;;;;14.07;98.74;101158.06;5033906;28;20104;-51
2022/05/17 06:05:53;;;;;;;13.20;5.28;;;;;;;14.11;98.80;101162.19;5026087;28;20713;-48
2022/05/17 06:08:24;;;;;;;11.23;4.82;;;;;;;14.11;98.72;101170.16;5041506;28;20049;-48
2022/05/17 06:10:51;;;;;;;13.20;5.53;;;;;;;14.14;99.21;101164.66;5028145;28;20048;-52
2022/05/17 06:13:20;;;;;;;11.80;5.30;;;;;;;14.17;99.75;101167.94;5039104;28;20814;-50
2022/05/17 06:15:51;;;;;;;11.73;4.47;;;;;;;14.19;99.18;101158.09;5039355;28;20517;-53
2022/05/17 06:18:18;;;;;;;9.50;4.28;;;;;;;14.22;98.11;101151.75;5041978;28;20059;-51
2022/05/17 06:20:54;;;;;;;14.57;4.50;;;;;;;14.29;96.93;101157.50;5038749;28;20465;-50
2022/05/17 06:23:22;;;;;;;;;;;;;;;14.33;97.00;101159.84;5030193;28;20041;-54
2022/05/17 06:25:50;;;;;;;12.30;4.35;;;;;;;14.37;96.53;101157.84;5036453;28;20025;-53
2022/05/17 06:28:18;;;;;;;11.63;5.07;;;;;;;14.39;95.90;101162.06;5044640;28;20049;-50
2022/05/17 06:30:45;;;;;;;8.77;4.43;;;;;;;14.44;95.88;101167.91;5038909;28;20225;-51
2022/05/17 06:33:14;;;;;;;10.27;4.63;;;;;;;14.49;96.36;101169.44;5040806;28;20152;-49
2022/05/17 06:35:43;;;;;;;6.85;3.97;;;;;;;14.54;96.92;101175.28;5042090;28;20060;-55
2022/05/17 06:38:11;;;;;;;9.23;4.03;;;;;;;14.58;96.40;101177.63;5045088;28;20053;-54
2022/05/17 06:40:39;;;;;;;6.85;4.43;;;;;;;14.63;95.45;101175.53;5036201;28;20063;-50
2022/05/17 06:43:07;;;;;;;8.88;4.32;;;;;;;14.69;95.31;101180.41;5039564;28;20060;-48
2022/05/17 06:45:35;;;;;;;10.30;4.20;;;;;;;14.68;95.28;101189.31;5044568;28;20048;-50
2022/05/17 06:48:02;;;;;;;11.60;4.78;;;;;;;14.74;95.31;101180.09;5041377;28;20061;-50
2022/05/17 06:50:31;;;;;;;8.65;4.93;;;;;;;14.79;95.26;101193.03;5044290;28;20049;-48
2022/05/17 06:52:58;;;;;;;12.75;5.20;;;;;;;14.86;95.14;101189.00;5043913;28;20096;-48
2022/05/17 06:55:25;;;;;;;14.40;5.57;;;;;;;14.92;95.20;101178.84;5036472;28;20512;-53
2022/05/17 06:57:53;;;;;;;10.00;4.60;;;;;;;14.99;95.48;101183.72;5041141;28;20050;-50
2022/05/17 07:00:20;;;;;;;9.27;4.93;;;;;;;15.05;95.94;101188.63;5024802;28;20068;-48
2022/05/17 07:02:48;;;;;;;8.75;4.82;;;;;;;15.14;95.17;101185.34;5046288;28;20048;-51
2022/05/17 07:05:16;;;;;;;11.23;5.38;;;;;;;15.30;94.71;101185.09;5041425;28;20067;-49
2022/05/17 07:07:43;;;;;;;10.68;5.50;;;;;;;15.44;94.08;101188.50;5037347;28;20052;-51
2022/05/17 07:13:10;;;;;;;9.35;4.32;;;;;;;15.68;93.35;101193.91;5041630;28;20057;-52
2022/05/17 07:15:46;;;;;;;11.85;5.03;;;;;;;15.82;92.95;101200.03;5031099;28;20166;-50
2022/05/17 07:18:17;;;;;;;9.60;5.32;;;;;;;15.90;91.73;101197.69;5037398;28;20060;-52
2022/05/17 07:20:45;;;;;;;17.25;5.00;;;;;;;16.05;90.03;101204.53;5036426;28;20068;-50
2022/05/17 07:23:13;;;;;;;11.18;4.82;;;;;;;16.23;88.63;101198.84;5031941;28;20072;-52
2022/05/17 07:25:41;;;;;;;7.75;4.90;;;;;;;16.40;87.34;101203.75;5023273;28;20446;-50
2022/05/17 07:28:09;;;;;;;9.13;5.50;;;;;;;16.62;85.23;101209.19;5043082;28;20051;-50
2022/05/17 07:30:37;;;;;;;9.27;4.60;;;;;;;16.84;83.75;101213.75;5050142;28;20051;-51
2022/05/17 07:33:04;;;;;;;6.63;4.65;;;;;;;17.13;83.44;101219.50;5023894;28;20108;-50
2022/05/17 07:35:31;;;;;;;9.70;5.05;;;;;;;17.45;82.21;101218.81;5042485;28;20068;-53
2022/05/17 07:37:59;;;;;;;13.48;4.78;;;;;;;17.77;80.80;101216.28;5049576;28;20069;-51
2022/05/17 07:40:26;;;;;;;7.47;4.70;;;;;;;17.93;77.77;101216.78;5040196;28;20075;-51
2022/05/17 07:42:54;;;;;;;8.88;4.70;;;;;;;18.09;77.65;101221.69;5042950;28;20381;-51
2022/05/17 07:45:22;;;;;;;7.80;4.60;;;;;;;18.23;76.71;101223.22;5047894;28;20496;-54
2022/05/17 07:47:50;;;;;;;7.68;3.95;;;;;;;18.30;75.47;101224.44;5041181;28;20045;-51
2022/05/17 07:50:17;;;;;;;9.52;5.30;;;;;;;18.30;74.58;101240.44;5038617;28;20480;-55
2022/05/17 07:52:45;;;;;;;11.95;5.70;;;;;;;18.13;74.07;101256.94;5016415;28;20051;-55
2022/05/17 07:55:12;;;;;;;10.35;5.15;;;;;;;17.96;74.85;101250.28;5034551;28;20055;-52
2022/05/17 07:57:40;;;;;;;11.48;5.05;;;;;;;17.87;73.58;101256.34;5024336;28;20051;-54
2022/05/17 08:00:08;;;;;;;10.48;4.60;;;;;;;17.83;73.91;101258.44;5029061;28;20603;-51
2022/05/17 08:02:35;;;;;;;9.20;5.28;;;;;;;17.92;73.97;101251.50;5043649;28;20051;-53
2022/05/17 08:05:03;;;;;;;10.13;4.88;;;;;;;17.94;74.03;101255.75;5046190;28;20049;-53
2022/05/17 08:07:30;;;;;;;11.80;5.53;;;;;;;18.07;74.00;101254.78;5039648;28;20045;-54
2022/05/17 08:09:58;;;;;;;14.60;6.38;;;;;;;18.10;74.31;101260.72;5042091;28;20061;-50
2022/05/17 08:12:25;;;;;;;17.73;7.10;;;;;;;17.86;73.88;101260.00;5045967;28;20465;-55
2022/05/17 08:14:52;;;;;;;11.35;6.35;;;;;;;17.85;74.24;101255.63;5036372;28;20049;-55
2022/05/17 08:17:21;;;;;;;10.32;6.50;;;;;;;17.85;73.41;101256.47;5042509;28;20063;-50
2022/05/17 08:19:49;;;;;;;12.90;7.20;;;;;;;17.95;73.23;101259.25;5036529;28;20044;-52
2022/05/17 08:22:16;;;;;;;12.90;6.32;;;;;;;18.08;73.24;101265.31;5029253;28;20060;-54
2022/05/17 08:27:32;;;;;;;;;;;;;;;18.27;72.42;101261.16;5021978;28;20493;-50
2022/05/17 08:30:00;;;;;;;12.57;7.45;;;;;;;18.34;72.27;101263.19;5019651;28;20577;-54
2022/05/17 08:35:14;;;;;;;14.70;8.13;;;;;;;18.25;74.55;101263.94;5010583;28;20053;-55
2022/05/17 08:37:42;;;;;;;18.08;7.90;;;;;;;18.48;73.55;101268.25;5024040;28;20052;-52
2022/05/17 08:40:16;;;;;;;14.95;6.82;;;;;;;18.64;71.66;101258.97;5025582;28;20475;-55
2022/05/17 08:43:02;;;;;;;10.80;6.78;;;;;;;18.75;70.11;101264.31;5009027;28;20057;-53
2022/05/17 08:45:39;;;;;;;14.02;7.40;;;;;;;18.83;68.98;101266.34;5031244;28;20057;-52
2022/05/17 08:48:17;;;;;;;12.13;6.22;;;;;;;18.96;69.33;101267.00;5014498;28;20441;-55
2022/05/17 08:50:46;;;;;;;10.10;5.82;;;;;;;19.17;68.03;101267.00;5020978;28;21587;-52
2022/05/17 08:53:18;;;;;;;15.93;6.90;;;;;;;19.19;68.09;101281.91;5010412;28;22021;-53
2022/05/17 08:55:46;;;;;;;14.00;6.65;;;;;;;18.84;68.74;101279.53;5023915;28;20041;-54
2022/05/17 08:58:28;;;;;;;17.55;7.63;;;;;;;18.85;70.03;101277.72;5022355;28;20049;-51
2022/05/17 09:01:12;;;;;;;11.65;7.18;;;;;;;19.11;69.66;101276.38;5026575;28;20067;-54
2022/05/17 09:03:47;;;;;;;16.10;7.13;;;;;;;19.30;69.36;101281.00;5012980;28;20141;-53
2022/05/17 09:06:38;;;;;;;11.68;6.03;;;;;;;19.62;69.17;101286.25;5009988;28;20061;-54
2022/05/17 09:09:23;;;;;;;14.02;6.60;;;;;;;19.47;66.44;101290.25;5024661;28;20053;-54
2022/05/17 09:11:57;;;;;;;12.93;5.97;;;;;;;19.60;66.65;101288.25;5010006;28;20045;-54
2022/05/17 09:14:28;;;;;;;10.10;5.68;;;;;;;19.76;65.53;101284.22;5021621;28;20098;-54
2022/05/17 09:16:59;;;;;;;15.13;5.60;;;;;;;19.65;63.90;101286.00;5008427;28;20091;-52
2022/05/17 09:19:26;;;;;;;9.82;5.13;;;;;;;19.57;65.25;101284.94;5023184;28;20428;-52
2022/05/17 09:21:58;;;;;;;10.82;4.47;;;;;;;19.72;64.73;101286.31;5023840;28;20075;-52
2022/05/17 09:24:35;;;;;;;12.75;5.40;;;;;;;19.75;63.36;101287.88;5024081;28;20053;-55
2022/05/17 09:27:12;;;;;;;10.30;4.88;;;;;;;19.71;64.72;101300.66;5021033;28;20053;-54
2022/05/17 09:29:42;;;;;;;15.45;5.50;;;;;;;19.80;63.01;101297.19;5009413;28;20377;-54
2022/05/17 09:32:12;;;;;;;9.23;5.40;;;;;;;19.60;64.08;101300.72;5019088;28;20053;-54
2022/05/17 09:34:41;;;;;;;12.20;5.43;;;;;;;19.90;63.32;101300.75;5022053;28;20113;-56
2022/05/17 09:37:13;;;;;;;13.00;6.10;;;;;;;20.27;63.04;101305.53;5023738;28;20068;-53
2022/05/17 09:39:47;;;;;;;12.70;5.32;;;;;;;20.40;62.48;101311.47;5027541;28;20052;-54
2022/05/17 09:42:26;;;;;;;11.93;5.83;;;;;;;19.70;63.67;101313.16;5023787;28;20069;-54
2022/05/17 09:44:56;;;;;;;8.85;4.90;;;;;;;20.07;63.59;101315.28;5024185;28;20484;-53
2022/05/17 09:47:28;;;;;;;12.20;5.65;;;;;;;20.40;63.41;101321.31;5022961;28;20049;-54
2022/05/17 09:52:45;;;;;;;8.45;5.55;;;;;;;20.76;62.99;101321.66;5006999;28;20060;-54
2022/05/17 09:55:21;;;;;;;7.65;4.90;;;;;;;21.15;62.87;101315.34;5027793;28;20053;-57
2022/05/17 09:57:55;;;;;;;12.13;4.78;;;;;;;21.45;61.33;101311.69;5021960;28;20048;-57
2022/05/17 10:00:30;;;;;;;14.35;5.57;;;;;;;21.20;58.56;101320.28;5031665;28;20541;-53
2022/05/17 10:03:03;;;;;;;10.77;5.32;;;;;;;21.44;58.92;101315.34;5033649;28;20056;-53
2022/05/17 10:05:37;;;;;;;9.82;4.88;;;;;;;21.49;58.49;101323.78;5040012;28;20053;-55
2022/05/17 10:08:13;;;;;;;7.80;4.45;;;;;;;21.64;57.49;101321.50;5029347;28;20352;-55
2022/05/17 10:10:46;;;;;;;9.27;5.03;;;;;;;21.48;57.16;101321.28;5019473;28;20059;-54
2022/05/17 10:13:29;;;;;;;9.35;4.97;;;;;;;21.23;59.06;101315.47;5022626;28;20045;-56
2022/05/17 10:16:08;;;;;;;7.75;4.70;;;;;;;21.53;58.83;101319.00;5007219;28;20060;-56
2022/05/17 10:18:46;;;;;;;11.90;5.07;;;;;;;21.87;58.03;101318.47;5007099;28;20053;-55
2022/05/17 10:21:20;;;;;;;6.90;4.10;;;;;;;22.20;56.94;101319.78;5021524;28;20049;-57
2022/05/17 10:24:08;;;;;;;8.00;4.60;;;;;;;22.18;54.27;101317.22;5005188;28;20062;-55
2022/05/17 10:26:42;;;;;;;8.68;4.93;;;;;;;22.13;55.10;101308.78;5005677;28;20495;-54
2022/05/17 10:29:20;;;;;;;9.80;5.53;;;;;;;22.21;54.21;101308.88;5017982;28;21941;-54
2022/05/17 10:32:01;;;;;;;13.77;4.30;;;;;;;22.26;54.63;101310.28;5005508;28;20057;-55
2022/05/17 10:34:52;;;;;;;8.43;4.68;;;;;;;22.45;54.36;101311.00;5022996;28;20481;-54
2022/05/17 10:37:23;;;;;;;9.23;4.53;;;;;;;22.52;53.61;101313.94;5021793;28;20373;-53
2022/05/17 10:40:04;;;;;;;7.60;3.78;;;;;;;22.72;52.86;101315.47;5006004;28;20052;-53
2022/05/17 10:42:32;;;;;;;15.70;4.40;;;;;;;22.65;50.81;101322.47;5024406;28;20801;-55
2022/05/17 10:45:00;;;;;;;8.77;4.28;;;;;;;22.62;51.17;101314.69;5025480;28;20052;-55
2022/05/17 10:47:39;;;;;;;10.65;4.38;;;;;;;22.46;51.25;101319.88;5022949;28;20737;-55
2022/05/17 10:50:21;;;;;;;8.73;3.97;;;;;;;22.43;51.12;101315.69;5021080;28;20057;-52
2022/05/17 10:52:59;;;;;;;8.15;4.45;;;;;;;22.61;51.26;101314.88;5004028;28;20053;-55
2022/05/17 10:56:06;;;;;;;5.55;3.58;;;;;;;22.70;51.84;101317.47;5026329;28;20593;-56
2022/05/17 10:58:48;;;;;;;10.80;3.75;;;;;;;22.90;51.64;101315.50;5006040;28;20060;-55
2022/05/17 11:01:42;;;;;;;9.93;4.75;;;;;;;22.99;51.23;101311.06;5038140;28;20397;-54
2022/05/17 11:04:57;;;;;;;14.20;3.83;;;;;;;23.16;51.03;101312.88;5026244;28;20049;-55
2022/05/17 11:07:34;;;;;;;7.20;3.65;;;;;;;23.22;50.51;101316.78;5032791;28;20056;-52
2022/05/17 11:10:10;;;;;;;6.22;3.30;;;;;;;23.24;49.98;101317.50;5027895;28;20493;-55
2022/05/17 11:12:45;;;;;;;9.02;3.90;;;;;;;23.30;49.84;101318.69;5015671;28;20053;-52
2022/05/17 11:15:17;;;;;;;5.70;3.80;;;;;;;23.20;50.11;101321.47;5030455;28;20052;-55
2022/05/17 11:17:55;;;;;;;6.35;3.35;;;;;;;23.27;50.00;101325.22;5023216;28;20059;-52
2022/05/17 11:20:30;;;;;;;8.48;4.13;;;;;;;23.33;50.15;101323.78;5016800;28;20095;-56
2022/05/17 11:23:28;;;;;;;8.65;3.88;;;;;;;23.37;50.20;101326.00;5031555;28;20403;-54
2022/05/17 11:26:28;;;;;;;9.77;4.18;;;;;;;23.43;49.46;101324.50;5018475;28;20059;-51
2022/05/17 11:29:14;;;;;;;9.50;4.32;;;;;;;23.48;49.40;101333.78;5019610;28;20064;-53
2022/05/17 11:31:58;;;;;;;15.48;4.18;;;;;;;23.64;49.15;101321.44;5021008;28;20059;-54
2022/05/17 11:34:28;;;;;;;9.35;3.95;;;;;;;23.82;48.51;101322.28;5032754;28;20037;-55
2022/05/17 11:37:02;;;;;;;8.00;3.92;;;;;;;23.62;46.99;101332.34;5031262;28;20055;-54
2022/05/17 11:39:32;;;;;;;8.13;3.58;;;;;;;23.72;46.36;101333.13;5034878;28;20048;-55
2022/05/17 11:42:08;;;;;;;6.78;4.05;;;;;;;23.83;46.35;101329.34;5035160;28;20049;-54
2022/05/17 11:44:44;;;;;;;9.95;4.25;;;;;;;24.02;46.25;101332.78;5040098;28;20049;-52
2022/05/17 11:47:27;;;;;;;7.07;4.00;;;;;;;24.23;46.89;101336.75;5037454;28;20045;-54
2022/05/17 11:50:21;;;;;;;12.13;4.05;;;;;;;24.72;45.90;101338.75;5037376;28;20049;-54
2022/05/17 11:52:55;;;;;;;11.77;3.83;;;;;;;24.78;45.46;101332.72;5038838;28;20052;-53
2022/05/17 11:55:28;;;;;;;17.73;4.80;;;;;;;25.20;44.44;101329.91;5036922;28;20378;-53